sensor_id;sensor_type;location;lat;lon;timestamp;P1;durP1;ratioP1;P2;durP2;ratioP2
17504;SDS011;8870;50.950;11.762;2023-02-01T00:05:14;4.68;;;1.52;;
17504;SDS011;8870;50.950;11.762;2023-02-01T00:10:32;4.65;;;1.60;;
17504;SDS011;8870;50.950;11.762;2023-02-01T00:16:05;5.78;;;1.85;;
17504;SDS011;8870;50.950;11.762;2023-02-01T00:21:28;5.82;;;1.67;;
17504;SDS011;8870;50.950;11.762;2023-02-01T00:26:59;6.50;;;1.73;;
17504;SDS011;8870;50.950;11.762;2023-02-01T00:32:18;6.85;;;1.85;;
17504;SDS011;8870;50.950;11.762;2023-02-01T00:37:51;8.25;;;1.60;;
17504;SDS011;8870;50.950;11.762;2023-02-01T00:43:10;4.78;;;1.60;;
17504;SDS011;8870;50.950;11.762;2023-02-01T00:48:43;5.05;;;1.67;;
17504;SDS011;8870;50.950;11.762;2023-02-01T00:54:06;7.07;;;1.52;;
17504;SDS011;8870;50.950;11.762;2023-02-01T00:59:38;6.53;;;1.65;;
17504;SDS011;8870;50.950;11.762;2023-02-01T01:05:09;4.97;;;1.63;;
17504;SDS011;8870;50.950;11.762;2023-02-01T01:10:30;7.93;;;1.70;;
17504;SDS011;8870;50.950;11.762;2023-02-01T01:16:03;6.80;;;1.70;;
17504;SDS011;8870;50.950;11.762;2023-02-01T01:21:24;5.38;;;1.60;;
17504;SDS011;8870;50.950;11.762;2023-02-01T01:26:59;9.20;;;1.70;;
17504;SDS011;8870;50.950;11.762;2023-02-01T01:32:18;7.85;;;1.70;;
17504;SDS011;8870;50.950;11.762;2023-02-01T01:37:50;8.85;;;1.95;;
17504;SDS011;8870;50.950;11.762;2023-02-01T01:43:15;5.75;;;1.77;;
17504;SDS011;8870;50.950;11.762;2023-02-01T01:48:48;7.00;;;1.90;;
17504;SDS011;8870;50.950;11.762;2023-02-01T01:54:11;5.75;;;1.70;;
17504;SDS011;8870;50.950;11.762;2023-02-01T01:59:52;8.87;;;2.10;;
17504;SDS011;8870;50.950;11.762;2023-02-01T02:05:17;7.53;;;1.95;;
17504;SDS011;8870;50.950;11.762;2023-02-01T02:10:50;7.72;;;1.73;;
17504;SDS011;8870;50.950;11.762;2023-02-01T02:28:10;7.50;;;2.15;;
17504;SDS011;8870;50.950;11.762;2023-02-01T02:34:00;8.10;;;2.28;;
17504;SDS011;8870;50.950;11.762;2023-02-01T02:39:48;9.63;;;2.30;;
17504;SDS011;8870;50.950;11.762;2023-02-01T02:45:52;7.63;;;1.70;;
17504;SDS011;8870;50.950;11.762;2023-02-01T02:51:43;9.82;;;2.20;;
17504;SDS011;8870;50.950;11.762;2023-02-01T02:57:34;6.88;;;2.20;;
17504;SDS011;8870;50.950;11.762;2023-02-01T03:03:08;7.65;;;2.00;;
17504;SDS011;8870;50.950;11.762;2023-02-01T03:08:56;8.05;;;1.90;;
17504;SDS011;8870;50.950;11.762;2023-02-01T03:14:20;6.82;;;1.77;;
17504;SDS011;8870;50.950;11.762;2023-02-01T03:25:49;9.52;;;2.30;;
17504;SDS011;8870;50.950;11.762;2023-02-01T03:31:23;7.15;;;2.10;;
17504;SDS011;8870;50.950;11.762;2023-02-01T03:36:43;6.85;;;1.88;;
17504;SDS011;8870;50.950;11.762;2023-02-01T03:42:24;8.93;;;2.20;;
17504;SDS011;8870;50.950;11.762;2023-02-01T03:47:48;8.27;;;1.95;;
17504;SDS011;8870;50.950;11.762;2023-02-01T03:53:23;9.25;;;2.17;;
17504;SDS011;8870;50.950;11.762;2023-02-01T03:58:50;7.28;;;2.10;;
17504;SDS011;8870;50.950;11.762;2023-02-01T04:04:24;8.23;;;2.08;;
17504;SDS011;8870;50.950;11.762;2023-02-01T04:09:43;10.35;;;2.30;;
17504;SDS011;8870;50.950;11.762;2023-02-01T04:20:31;7.38;;;2.08;;
17504;SDS011;8870;50.950;11.762;2023-02-01T04:26:02;8.55;;;1.92;;
17504;SDS011;8870;50.950;11.762;2023-02-01T04:31:25;9.55;;;2.25;;
17504;SDS011;8870;50.950;11.762;2023-02-01T04:36:58;5.47;;;1.60;;
17504;SDS011;8870;50.950;11.762;2023-02-01T04:42:17;5.97;;;1.80;;
17504;SDS011;8870;50.950;11.762;2023-02-01T04:47:50;6.90;;;1.83;;
17504;SDS011;8870;50.950;11.762;2023-02-01T04:53:09;4.15;;;1.50;;
17504;SDS011;8870;50.950;11.762;2023-02-01T04:58:41;5.80;;;1.80;;
17504;SDS011;8870;50.950;11.762;2023-02-01T05:04:01;4.80;;;1.40;;
17504;SDS011;8870;50.950;11.762;2023-02-01T05:09:33;5.25;;;1.73;;
17504;SDS011;8870;50.950;11.762;2023-02-01T05:14:52;4.90;;;1.80;;
17504;SDS011;8870;50.950;11.762;2023-02-01T05:20:26;7.10;;;1.80;;
17504;SDS011;8870;50.950;11.762;2023-02-01T05:25:45;5.63;;;1.70;;
17504;SDS011;8870;50.950;11.762;2023-02-01T05:31:16;5.95;;;1.60;;
17504;SDS011;8870;50.950;11.762;2023-02-01T05:36:37;10.60;;;2.10;;
17504;SDS011;8870;50.950;11.762;2023-02-01T05:42:08;5.78;;;1.60;;
17504;SDS011;8870;50.950;11.762;2023-02-01T05:47:27;7.07;;;2.10;;
17504;SDS011;8870;50.950;11.762;2023-02-01T05:53:00;8.82;;;2.00;;
17504;SDS011;8870;50.950;11.762;2023-02-01T05:58:31;7.55;;;1.95;;
17504;SDS011;8870;50.950;11.762;2023-02-01T06:03:50;8.57;;;2.40;;
17504;SDS011;8870;50.950;11.762;2023-02-01T06:09:26;8.40;;;1.88;;
17504;SDS011;8870;50.950;11.762;2023-02-01T06:14:45;6.43;;;1.83;;
17504;SDS011;8870;50.950;11.762;2023-02-01T06:20:16;8.13;;;1.90;;
17504;SDS011;8870;50.950;11.762;2023-02-01T06:25:37;8.35;;;1.92;;
17504;SDS011;8870;50.950;11.762;2023-02-01T06:31:09;7.93;;;2.00;;
17504;SDS011;8870;50.950;11.762;2023-02-01T06:36:28;7.10;;;1.88;;
17504;SDS011;8870;50.950;11.762;2023-02-01T06:42:02;8.27;;;2.13;;
17504;SDS011;8870;50.950;11.762;2023-02-01T06:47:21;6.90;;;1.90;;
17504;SDS011;8870;50.950;11.762;2023-02-01T06:52:52;5.90;;;1.83;;
17504;SDS011;8870;50.950;11.762;2023-02-01T06:58:13;5.50;;;1.95;;
17504;SDS011;8870;50.950;11.762;2023-02-01T07:03:46;10.85;;;2.25;;
17504;SDS011;8870;50.950;11.762;2023-02-01T07:09:06;7.50;;;2.05;;
17504;SDS011;8870;50.950;11.762;2023-02-01T07:14:40;5.55;;;1.60;;
17504;SDS011;8870;50.950;11.762;2023-02-01T07:19:59;6.43;;;1.83;;
17504;SDS011;8870;50.950;11.762;2023-02-01T07:25:29;6.57;;;1.65;;
17504;SDS011;8870;50.950;11.762;2023-02-01T07:30:51;4.93;;;1.70;;
17504;SDS011;8870;50.950;11.762;2023-02-01T07:36:23;5.60;;;1.60;;
17504;SDS011;8870;50.950;11.762;2023-02-01T07:41:42;7.25;;;1.88;;
17504;SDS011;8870;50.950;11.762;2023-02-01T07:47:15;5.68;;;1.80;;
17504;SDS011;8870;50.950;11.762;2023-02-01T07:52:35;5.93;;;1.65;;
17504;SDS011;8870;50.950;11.762;2023-02-01T07:58:06;7.43;;;1.80;;
17504;SDS011;8870;50.950;11.762;2023-02-01T08:03:28;6.70;;;1.90;;
17504;SDS011;8870;50.950;11.762;2023-02-01T08:08:59;6.38;;;1.80;;
17504;SDS011;8870;50.950;11.762;2023-02-01T08:14:18;6.18;;;1.60;;
17504;SDS011;8870;50.950;11.762;2023-02-01T08:19:51;7.57;;;1.85;;
17504;SDS011;8870;50.950;11.762;2023-02-01T08:25:10;8.52;;;1.83;;
17504;SDS011;8870;50.950;11.762;2023-02-01T08:30:41;5.25;;;1.60;;
17504;SDS011;8870;50.950;11.762;2023-02-01T08:36:03;5.57;;;1.70;;
17504;SDS011;8870;50.950;11.762;2023-02-01T08:41:36;7.07;;;2.08;;
17504;SDS011;8870;50.950;11.762;2023-02-01T08:46:55;5.18;;;1.83;;
17504;SDS011;8870;50.950;11.762;2023-02-01T08:52:30;6.90;;;1.92;;
17504;SDS011;8870;50.950;11.762;2023-02-01T08:57:49;6.60;;;1.80;;
17504;SDS011;8870;50.950;11.762;2023-02-01T09:03:20;6.45;;;1.85;;
17504;SDS011;8870;50.950;11.762;2023-02-01T09:08:41;5.60;;;1.70;;
17504;SDS011;8870;50.950;11.762;2023-02-01T09:14:12;7.00;;;1.90;;
17504;SDS011;8870;50.950;11.762;2023-02-01T09:19:31;7.55;;;1.90;;
17504;SDS011;8870;50.950;11.762;2023-02-01T09:25:07;5.10;;;1.65;;
17504;SDS011;8870;50.950;11.762;2023-02-01T09:30:26;6.80;;;2.13;;
17504;SDS011;8870;50.950;11.762;2023-02-01T09:35:59;5.97;;;1.80;;
17504;SDS011;8870;50.950;11.762;2023-02-01T09:41:24;10.02;;;2.10;;
17504;SDS011;8870;50.950;11.762;2023-02-01T09:47:03;6.90;;;1.67;;
17504;SDS011;8870;50.950;11.762;2023-02-01T09:52:31;8.60;;;1.40;;
17504;SDS011;8870;50.950;11.762;2023-02-01T09:58:11;5.37;;;1.80;;
17504;SDS011;8870;50.950;11.762;2023-02-01T10:03:33;6.97;;;1.80;;
17504;SDS011;8870;50.950;11.762;2023-02-01T10:09:14;4.63;;;1.25;;
17504;SDS011;8870;50.950;11.762;2023-02-01T10:14:51;5.60;;;1.38;;
17504;SDS011;8870;50.950;11.762;2023-02-01T10:20:30;5.60;;;1.27;;
17504;SDS011;8870;50.950;11.762;2023-02-01T10:26:03;5.45;;;1.48;;
17504;SDS011;8870;50.950;11.762;2023-02-01T10:31:45;5.57;;;1.65;;
17504;SDS011;8870;50.950;11.762;2023-02-01T10:37:18;5.32;;;1.58;;
17504;SDS011;8870;50.950;11.762;2023-02-01T10:42:56;7.22;;;1.67;;
17504;SDS011;8870;50.950;11.762;2023-02-01T10:48:20;5.68;;;1.50;;
17504;SDS011;8870;50.950;11.762;2023-02-01T10:53:53;3.53;;;1.38;;
17504;SDS011;8870;50.950;11.762;2023-02-01T10:59:24;3.60;;;1.50;;
17504;SDS011;8870;50.950;11.762;2023-02-01T11:05:03;5.70;;;1.50;;
17504;SDS011;8870;50.950;11.762;2023-02-01T11:10:37;3.63;;;1.20;;
17504;SDS011;8870;50.950;11.762;2023-02-01T11:16:11;5.60;;;1.42;;
17504;SDS011;8870;50.950;11.762;2023-02-01T11:21:34;6.57;;;1.40;;
17504;SDS011;8870;50.950;11.762;2023-02-01T11:27:12;6.03;;;1.48;;
17504;SDS011;8870;50.950;11.762;2023-02-01T11:32:35;6.47;;;1.70;;
17504;SDS011;8870;50.950;11.762;2023-02-01T11:38:17;4.57;;;1.30;;
17504;SDS011;8870;50.950;11.762;2023-02-01T11:43:53;5.47;;;1.40;;
17504;SDS011;8870;50.950;11.762;2023-02-01T11:49:26;4.53;;;1.15;;
17504;SDS011;8870;50.950;11.762;2023-02-01T11:54:54;5.25;;;1.58;;
17504;SDS011;8870;50.950;11.762;2023-02-01T12:00:42;4.20;;;1.30;;
17504;SDS011;8870;50.950;11.762;2023-02-01T12:06:15;4.95;;;1.45;;
17504;SDS011;8870;50.950;11.762;2023-02-01T12:11:59;4.70;;;1.50;;
17504;SDS011;8870;50.950;11.762;2023-02-01T12:29:07;3.85;;;1.20;;
17504;SDS011;8870;50.950;11.762;2023-02-01T12:46:19;4.35;;;1.38;;
17504;SDS011;8870;50.950;11.762;2023-02-01T12:51:44;5.00;;;1.52;;
17504;SDS011;8870;50.950;11.762;2023-02-01T12:57:21;5.43;;;1.65;;
17504;SDS011;8870;50.950;11.762;2023-02-01T13:02:54;5.38;;;1.58;;
17504;SDS011;8870;50.950;11.762;2023-02-01T13:08:34;3.85;;;1.17;;
17504;SDS011;8870;50.950;11.762;2023-02-01T13:14:00;5.15;;;1.38;;
17504;SDS011;8870;50.950;11.762;2023-02-01T13:19:41;5.97;;;1.58;;
17504;SDS011;8870;50.950;11.762;2023-02-01T13:25:03;6.22;;;1.50;;
17504;SDS011;8870;50.950;11.762;2023-02-01T13:30:51;4.88;;;1.40;;
17504;SDS011;8870;50.950;11.762;2023-02-01T13:36:52;5.35;;;1.52;;
17504;SDS011;8870;50.950;11.762;2023-02-01T13:42:33;3.80;;;1.38;;
17504;SDS011;8870;50.950;11.762;2023-02-01T13:48:06;4.63;;;1.60;;
17504;SDS011;8870;50.950;11.762;2023-02-01T14:05:12;4.55;;;1.58;;
17504;SDS011;8870;50.950;11.762;2023-02-01T14:22:51;6.18;;;1.65;;
17504;SDS011;8870;50.950;11.762;2023-02-01T14:28:35;6.63;;;1.70;;
17504;SDS011;8870;50.950;11.762;2023-02-01T14:33:56;5.20;;;1.60;;
17504;SDS011;8870;50.950;11.762;2023-02-01T14:39:34;4.80;;;1.50;;
17504;SDS011;8870;50.950;11.762;2023-02-01T14:51:14;5.03;;;1.50;;
17504;SDS011;8870;50.950;11.762;2023-02-01T14:56:35;3.97;;;1.40;;
17504;SDS011;8870;50.950;11.762;2023-02-01T15:02:14;4.90;;;1.55;;
17504;SDS011;8870;50.950;11.762;2023-02-01T15:07:56;3.08;;;1.27;;
17504;SDS011;8870;50.950;11.762;2023-02-01T15:13:19;4.43;;;1.25;;
17504;SDS011;8870;50.950;11.762;2023-02-01T15:19:06;4.15;;;1.27;;
17504;SDS011;8870;50.950;11.762;2023-02-01T15:24:28;5.13;;;1.35;;
17504;SDS011;8870;50.950;11.762;2023-02-01T15:30:04;5.85;;;1.65;;
17504;SDS011;8870;50.950;11.762;2023-02-01T15:35:34;7.20;;;1.40;;
17504;SDS011;8870;50.950;11.762;2023-02-01T15:41:12;3.92;;;1.20;;
17504;SDS011;8870;50.950;11.762;2023-02-01T15:46:32;4.50;;;1.30;;
17504;SDS011;8870;50.950;11.762;2023-02-01T15:52:12;5.28;;;1.73;;
17504;SDS011;8870;50.950;11.762;2023-02-01T15:57:41;2.85;;;1.05;;
17504;SDS011;8870;50.950;11.762;2023-02-01T16:03:26;3.38;;;1.20;;
17504;SDS011;8870;50.950;11.762;2023-02-01T16:09:09;5.57;;;1.30;;
17504;SDS011;8870;50.950;11.762;2023-02-01T16:14:33;2.97;;;1.15;;
17504;SDS011;8870;50.950;11.762;2023-02-01T16:20:04;3.65;;;1.05;;
17504;SDS011;8870;50.950;11.762;2023-02-01T16:25:24;3.50;;;0.90;;
17504;SDS011;8870;50.950;11.762;2023-02-01T16:30:58;4.50;;;1.15;;
17504;SDS011;8870;50.950;11.762;2023-02-01T16:36:17;5.82;;;1.20;;
17504;SDS011;8870;50.950;11.762;2023-02-01T16:41:50;3.08;;;1.08;;
17504;SDS011;8870;50.950;11.762;2023-02-01T16:47:14;2.10;;;0.80;;
17504;SDS011;8870;50.950;11.762;2023-02-01T16:52:48;4.05;;;1.02;;
17504;SDS011;8870;50.950;11.762;2023-02-01T16:58:06;2.58;;;0.70;;
17504;SDS011;8870;50.950;11.762;2023-02-01T17:03:40;0.80;;;0.40;;
17504;SDS011;8870;50.950;11.762;2023-02-01T17:09:14;0.75;;;0.50;;
17504;SDS011;8870;50.950;11.762;2023-02-01T17:14:34;0.50;;;0.50;;
17504;SDS011;8870;50.950;11.762;2023-02-01T17:20:15;2.13;;;1.10;;
17504;SDS011;8870;50.950;11.762;2023-02-01T17:25:37;2.50;;;0.90;;
17504;SDS011;8870;50.950;11.762;2023-02-01T17:31:10;1.38;;;0.77;;
17504;SDS011;8870;50.950;11.762;2023-02-01T17:36:34;2.92;;;0.80;;
17504;SDS011;8870;50.950;11.762;2023-02-01T17:42:08;4.07;;;1.17;;
17504;SDS011;8870;50.950;11.762;2023-02-01T17:47:29;4.22;;;1.15;;
17504;SDS011;8870;50.950;11.762;2023-02-01T17:53:03;2.97;;;1.27;;
17504;SDS011;8870;50.950;11.762;2023-02-01T17:58:23;2.65;;;1.00;;
17504;SDS011;8870;50.950;11.762;2023-02-01T18:03:56;3.90;;;1.10;;
17504;SDS011;8870;50.950;11.762;2023-02-01T18:09:29;1.85;;;0.80;;
17504;SDS011;8870;50.950;11.762;2023-02-01T18:14:48;2.08;;;1.00;;
17504;SDS011;8870;50.950;11.762;2023-02-01T18:20:21;2.03;;;0.93;;
17504;SDS011;8870;50.950;11.762;2023-02-01T18:25:44;3.55;;;1.20;;
17504;SDS011;8870;50.950;11.762;2023-02-01T18:31:18;4.30;;;1.17;;
17504;SDS011;8870;50.950;11.762;2023-02-01T18:36:38;3.65;;;1.23;;
17504;SDS011;8870;50.950;11.762;2023-02-01T18:42:11;2.13;;;1.08;;
17504;SDS011;8870;50.950;11.762;2023-02-01T18:47:30;2.30;;;1.00;;
17504;SDS011;8870;50.950;11.762;2023-02-01T18:53:02;3.47;;;1.02;;
17504;SDS011;8870;50.950;11.762;2023-02-01T18:58:24;2.53;;;0.93;;
17504;SDS011;8870;50.950;11.762;2023-02-01T19:03:56;2.45;;;1.00;;
17504;SDS011;8870;50.950;11.762;2023-02-01T19:09:36;2.50;;;0.90;;
17504;SDS011;8870;50.950;11.762;2023-02-01T19:14:58;3.10;;;0.90;;
17504;SDS011;8870;50.950;11.762;2023-02-01T19:20:29;5.60;;;1.40;;
17504;SDS011;8870;50.950;11.762;2023-02-01T19:25:49;3.10;;;1.30;;
17504;SDS011;8870;50.950;11.762;2023-02-01T19:31:23;2.25;;;1.10;;
17504;SDS011;8870;50.950;11.762;2023-02-01T19:36:43;1.48;;;0.85;;
17504;SDS011;8870;50.950;11.762;2023-02-01T19:42:15;3.63;;;1.15;;
17504;SDS011;8870;50.950;11.762;2023-02-01T19:47:36;2.08;;;1.00;;
17504;SDS011;8870;50.950;11.762;2023-02-01T19:53:07;3.40;;;1.30;;
17504;SDS011;8870;50.950;11.762;2023-02-01T19:58:26;3.45;;;1.35;;
17504;SDS011;8870;50.950;11.762;2023-02-01T20:03:59;4.78;;;1.23;;
17504;SDS011;8870;50.950;11.762;2023-02-01T20:09:33;5.88;;;1.40;;
17504;SDS011;8870;50.950;11.762;2023-02-01T20:14:52;4.50;;;1.40;;
17504;SDS011;8870;50.950;11.762;2023-02-01T20:20:27;5.50;;;1.25;;
17504;SDS011;8870;50.950;11.762;2023-02-01T20:25:47;6.82;;;1.65;;
17504;SDS011;8870;50.950;11.762;2023-02-01T20:31:18;5.50;;;1.33;;
17504;SDS011;8870;50.950;11.762;2023-02-01T20:36:41;2.63;;;0.90;;
17504;SDS011;8870;50.950;11.762;2023-02-01T20:42:12;3.72;;;1.10;;
17504;SDS011;8870;50.950;11.762;2023-02-01T20:47:30;3.55;;;0.90;;
17504;SDS011;8870;50.950;11.762;2023-02-01T20:53:06;2.13;;;0.85;;
17504;SDS011;8870;50.950;11.762;2023-02-01T20:58:34;2.83;;;0.90;;
17504;SDS011;8870;50.950;11.762;2023-02-01T21:04:05;3.20;;;0.90;;
17504;SDS011;8870;50.950;11.762;2023-02-01T21:09:26;3.45;;;1.00;;
17504;SDS011;8870;50.950;11.762;2023-02-01T21:15:01;3.33;;;1.00;;
17504;SDS011;8870;50.950;11.762;2023-02-01T21:20:21;2.28;;;0.90;;
17504;SDS011;8870;50.950;11.762;2023-02-01T21:25:56;1.85;;;0.80;;
17504;SDS011;8870;50.950;11.762;2023-02-01T21:31:18;3.38;;;1.08;;
17504;SDS011;8870;50.950;11.762;2023-02-01T21:36:51;3.67;;;0.85;;
17504;SDS011;8870;50.950;11.762;2023-02-01T21:42:13;2.45;;;1.02;;
17504;SDS011;8870;50.950;11.762;2023-02-01T21:47:45;2.55;;;0.90;;
17504;SDS011;8870;50.950;11.762;2023-02-01T21:53:03;2.53;;;1.00;;
17504;SDS011;8870;50.950;11.762;2023-02-01T21:58:36;2.58;;;1.00;;
17504;SDS011;8870;50.950;11.762;2023-02-01T22:03:55;2.75;;;1.10;;
17504;SDS011;8870;50.950;11.762;2023-02-01T22:09:27;2.33;;;1.00;;
17504;SDS011;8870;50.950;11.762;2023-02-01T22:14:49;3.67;;;1.20;;
17504;SDS011;8870;50.950;11.762;2023-02-01T22:20:21;3.60;;;1.13;;
17504;SDS011;8870;50.950;11.762;2023-02-01T22:25:42;4.45;;;1.10;;
17504;SDS011;8870;50.950;11.762;2023-02-01T22:31:18;5.18;;;1.20;;
17504;SDS011;8870;50.950;11.762;2023-02-01T22:36:38;5.20;;;1.50;;
17504;SDS011;8870;50.950;11.762;2023-02-01T22:42:09;3.58;;;1.15;;
17504;SDS011;8870;50.950;11.762;2023-02-01T22:47:30;6.10;;;1.45;;
17504;SDS011;8870;50.950;11.762;2023-02-01T22:53:01;3.22;;;1.30;;
17504;SDS011;8870;50.950;11.762;2023-02-01T22:58:20;4.80;;;1.50;;
17504;SDS011;8870;50.950;11.762;2023-02-01T23:03:57;4.68;;;1.33;;
17504;SDS011;8870;50.950;11.762;2023-02-01T23:09:17;4.20;;;1.60;;
17504;SDS011;8870;50.950;11.762;2023-02-01T23:14:49;6.38;;;1.70;;
17504;SDS011;8870;50.950;11.762;2023-02-01T23:20:25;6.25;;;1.50;;
17504;SDS011;8870;50.950;11.762;2023-02-01T23:25:56;5.43;;;1.60;;
17504;SDS011;8870;50.950;11.762;2023-02-01T23:31:14;3.63;;;1.30;;
17504;SDS011;8870;50.950;11.762;2023-02-01T23:36:49;6.60;;;1.50;;
17504;SDS011;8870;50.950;11.762;2023-02-01T23:42:08;3.90;;;1.27;;
17504;SDS011;8870;50.950;11.762;2023-02-01T23:47:40;4.55;;;1.15;;
17504;SDS011;8870;50.950;11.762;2023-02-01T23:53:01;3.25;;;1.10;;
17504;SDS011;8870;50.950;11.762;2023-02-01T23:58:32;4.38;;;1.20;;
